Time;durP1;ratioP1;P1;durP2;ratioP2;P2;SDS_P1;SDS_P2;PMS_P1;PMS_P2;Temp;Humidity;BMP_temperature;BMP_pressure;BME280_temperature;BME280_humidity;BME280_pressure;Samples;Min_cycle;Max_cycle;Signal;HPM_P1;HPM_P2
2022/04/18 00:00:21;;;;;;;10.15;8.13;;;18.70;46.20;;;;;;4889697;28;100253;-71
2022/04/18 00:02:47;;;;;;;10.10;8.52;;;18.70;46.10;;;;;;4889237;28;99502;-71
2022/04/18 00:05:13;;;;;;;9.35;8.35;;;18.70;46.00;;;;;;4890527;28;98979;-71
2022/04/18 00:07:39;;;;;;;10.85;8.82;;;18.70;46.10;;;;;;4890358;28;100037;-71
2022/04/18 00:10:05;;;;;;;10.35;8.68;;;18.70;46.10;;;;;;4890338;28;100258;-71
2022/04/18 00:12:31;;;;;;;9.20;8.25;;;18.70;46.10;;;;;;4890518;28;101917;-71
2022/04/18 00:14:57;;;;;;;10.90;8.77;;;18.60;47.00;;;;;;4890910;28;98594;-71
2022/04/18 00:17:23;;;;;;;10.48;9.00;;;18.60;46.00;;;;;;4891084;28;99043;-71
2022/04/18 00:19:49;;;;;;;9.60;8.60;;;18.60;46.00;;;;;;4889184;28;100809;-70
2022/04/18 00:22:14;;;;;;;10.95;9.00;;;18.60;46.00;;;;;;4889219;28;100875;-70
2022/04/18 00:24:41;;;;;;;10.40;8.68;;;18.60;46.00;;;;;;4889780;28;98543;-72
2022/04/18 00:27:06;;;;;;;11.45;9.50;;;18.60;46.10;;;;;;4890085;28;99294;-72
2022/04/18 00:29:32;;;;;;;11.32;9.63;;;18.60;46.10;;;;;;4889277;28;99603;-71
2022/04/18 00:31:57;;;;;;;11.85;9.52;;;18.60;46.20;;;;;;4889147;28;99890;-71
2022/04/18 00:34:23;;;;;;;10.38;9.23;;;18.60;46.20;;;;;;4889607;28;98628;-71
2022/04/18 00:36:49;;;;;;;10.55;9.45;;;18.60;46.20;;;;;;4890358;28;98316;-71
2022/04/18 00:39:14;;;;;;;12.10;10.13;;;18.60;46.20;;;;;;4889585;28;100604;-71
2022/04/18 00:41:40;;;;;;;10.50;9.45;;;18.60;46.20;;;;;;4888443;28;99954;-71
2022/04/18 00:44:05;;;;;;;11.25;9.57;;;18.60;46.20;;;;;;4889163;28;99787;-71
2022/04/18 00:46:32;;;;;;;11.48;9.93;;;18.60;46.20;;;;;;4890279;28;99111;-71
2022/04/18 00:48:58;;;;;;;11.15;9.77;;;18.60;46.10;;;;;;4889369;28;99126;-71
2022/04/18 00:51:26;;;;;;;11.45;10.25;;;18.50;46.10;;;;;;4888855;28;100035;-70
2022/04/18 00:53:54;;;;;;;11.23;10.02;;;18.60;46.10;;;;;;4889032;28;99125;-72
2022/04/18 00:56:22;;;;;;;12.70;10.05;;;18.50;46.10;;;;;;4888648;28;99311;-72
2022/04/18 00:58:48;;;;;;;12.40;10.70;;;18.50;46.10;;;;;;4887636;28;100236;-71
2022/04/18 01:01:15;;;;;;;12.32;10.80;;;18.50;46.10;;;;;;4889344;28;100114;-71
2022/04/18 01:03:42;;;;;;;12.70;11.00;;;18.50;46.10;;;;;;4889506;28;98954;-71
2022/04/18 01:06:08;;;;;;;12.07;10.55;;;18.50;46.00;;;;;;4889839;28;98649;-71
2022/04/18 01:08:35;;;;;;;13.45;10.85;;;18.50;46.00;;;;;;4888753;28;101502;-71
2022/04/18 01:11:02;;;;;;;14.45;11.50;;;18.50;46.00;;;;;;4888459;28;99968;-71
2022/04/18 01:13:28;;;;;;;12.20;10.80;;;18.50;46.00;;;;;;4889022;28;98678;-69
2022/04/18 01:15:55;;;;;;;13.48;11.52;;;18.50;45.90;;;;;;4889106;28;98562;-72
2022/04/18 01:18:21;;;;;;;13.38;11.65;;;18.40;45.90;;;;;;4887637;28;100434;-71
2022/04/18 01:20:47;;;;;;;12.02;10.73;;;18.50;46.00;;;;;;4891737;28;99127;-71
2022/04/18 01:23:13;;;;;;;13.13;11.60;;;18.40;45.90;;;;;;4892861;28;98677;-71
2022/04/18 01:31:08;;;;;;;14.73;12.20;;;18.40;45.90;;;;;;4891985;28;98720;-71
2022/04/18 01:33:33;;;;;;;14.35;12.10;;;18.40;45.90;;;;;;4890586;28;99539;-71
2022/04/18 01:35:59;;;;;;;14.30;12.07;;;18.40;45.90;;;;;;4891729;28;98772;-71
2022/04/18 01:38:24;;;;;;;14.65;12.15;;;18.40;45.70;;;;;;4890706;28;100244;-71
2022/04/18 01:40:50;;;;;;;14.10;12.30;;;18.40;45.70;;;;;;4890478;28;100274;-71
2022/04/18 01:43:15;;;;;;;13.88;12.43;;;18.40;45.70;;;;;;4890942;28;99167;-70
2022/04/18 01:45:41;;;;;;;14.60;11.95;;;18.40;45.70;;;;;;4890804;28;99389;-71
2022/04/18 01:48:07;;;;;;;13.50;12.05;;;18.40;45.70;;;;;;4890485;28;100746;-71
2022/04/18 01:50:32;;;;;;;13.40;11.60;;;18.40;45.70;;;;;;4891313;28;99976;-71
2022/04/18 01:52:58;;;;;;;14.57;12.48;;;18.40;45.70;;;;;;4891242;28;99086;-71
2022/04/18 01:55:24;;;;;;;14.35;12.35;;;18.40;45.70;;;;;;4890540;28;99523;-71
2022/04/18 01:57:50;;;;;;;15.15;12.68;;;18.40;45.70;;;;;;4890217;28;99861;-71
2022/04/18 02:00:16;;;;;;;16.02;13.35;;;18.40;45.70;;;;;;4889813;28;101033;-72
2022/04/18 02:02:41;;;;;;;14.75;12.63;;;18.30;45.60;;;;;;4890935;28;98949;-71
2022/04/18 02:05:07;;;;;;;14.93;13.13;;;18.30;45.50;;;;;;4891874;28;98679;-71
2022/04/18 02:07:33;;;;;;;15.82;13.40;;;18.40;45.60;;;;;;4889763;28;100297;-71
2022/04/18 02:10:00;;;;;;;15.20;12.98;;;18.40;45.60;;;;;;4891080;28;98955;-71
2022/04/18 02:12:26;;;;;;;16.35;13.40;;;18.30;45.50;;;;;;4891102;28;99174;-71
2022/04/18 02:14:51;;;;;;;14.23;12.70;;;18.30;45.50;;;;;;4890996;28;98444;-72
2022/04/18 02:17:17;;;;;;;14.77;13.07;;;18.30;45.50;;;;;;4890893;28;99232;-71
2022/04/18 02:19:44;;;;;;;15.13;13.52;;;18.30;45.50;;;;;;4891376;28;99035;-71
2022/04/18 02:22:10;;;;;;;17.05;13.82;;;18.30;45.60;;;;;;4890716;28;99981;-71
2022/04/18 02:24:36;;;;;;;15.35;13.40;;;18.30;45.50;;;;;;4890654;28;98990;-71
2022/04/18 02:27:01;;;;;;;14.48;12.93;;;18.30;45.50;;;;;;4890460;28;108035;-70
2022/04/18 02:29:27;;;;;;;16.15;13.57;;;18.30;45.50;;;;;;4890537;28;99970;-71
2022/04/18 02:34:37;;;;;;;15.77;13.85;;;18.30;45.50;;;;;;4891206;28;98681;-71
2022/04/18 02:37:04;;;;;;;15.43;12.73;;;18.20;45.50;;;;;;4890414;28;100360;-71
2022/04/18 02:39:30;;;;;;;15.23;13.50;;;18.30;45.50;;;;;;4890763;28;99018;-71
2022/04/18 02:41:57;;;;;;;14.63;13.02;;;18.20;45.40;;;;;;4891057;28;99810;-71
2022/04/18 02:44:23;;;;;;;15.55;13.85;;;18.30;45.50;;;;;;4891313;28;99274;-71
2022/04/18 02:46:49;;;;;;;15.52;12.98;;;18.30;45.40;;;;;;4890755;28;99946;-71
2022/04/18 02:49:15;;;;;;;14.57;13.07;;;18.30;45.50;;;;;;4890086;28;100687;-71
2022/04/18 02:51:41;;;;;;;14.15;12.63;;;18.30;45.50;;;;;;4890149;28;101200;-71
2022/04/18 02:54:07;;;;;;;15.52;12.95;;;18.30;45.50;;;;;;4889199;28;99526;-71
2022/04/18 02:56:32;;;;;;;16.08;13.23;;;18.20;45.40;;;;;;4891251;28;99213;-71
2022/04/18 02:58:58;;;;;;;14.95;13.05;;;18.20;45.40;;;;;;4893053;28;101284;-71
2022/04/18 03:01:24;;;;;;;17.05;14.15;;;18.20;45.40;;;;;;4892713;28;98806;-71
2022/04/18 03:03:49;;;;;;;15.80;13.63;;;18.20;45.30;;;;;;4893490;28;98369;-71
2022/04/18 03:06:15;;;;;;;14.25;12.45;;;18.20;45.40;;;;;;4890343;28;99375;-70
2022/04/18 03:08:41;;;;;;;14.65;13.05;;;18.20;45.30;;;;;;4890150;28;100085;-71
2022/04/18 03:11:08;;;;;;;14.82;13.23;;;18.20;45.30;;;;;;4889584;28;99798;-71
2022/04/18 03:13:36;;;;;;;16.73;13.55;;;18.20;45.30;;;;;;4889797;28;99070;-71
2022/04/18 04:18:36;;;;;;;14.07;12.57;;;18.00;45.20;;;;;;5554492;23;107046;-69
2022/04/18 04:21:02;;;;;;;14.48;12.95;;;18.00;45.20;;;;;;4860030;28;99347;-72
2022/04/18 04:23:27;;;;;;;14.85;12.82;;;18.00;45.20;;;;;;4856850;28;102939;-72
2022/04/18 04:25:53;;;;;;;14.25;12.75;;;18.00;45.20;;;;;;4859082;28;99723;-72
2022/04/18 04:28:19;;;;;;;14.30;12.80;;;18.00;45.20;;;;;;4871509;28;98746;-72
2022/04/18 04:30:45;;;;;;;15.38;13.05;;;18.00;45.10;;;;;;4870749;28;106854;-70
2022/04/18 04:33:13;;;;;;;13.80;12.18;;;18.00;45.10;;;;;;4869535;28;117859;-72
2022/04/18 04:35:39;;;;;;;13.52;12.10;;;17.90;45.10;;;;;;4870642;28;98658;-72
2022/04/18 04:38:04;;;;;;;15.13;13.07;;;18.00;45.10;;;;;;4869295;28;99110;-72
2022/04/18 04:40:30;;;;;;;13.77;12.30;;;17.90;44.90;;;;;;4851010;29;104788;-72
2022/04/18 04:42:56;;;;;;;15.43;12.68;;;17.90;45.00;;;;;;4852641;29;100115;-71
2022/04/18 04:45:21;;;;;;;14.48;12.57;;;18.00;45.10;;;;;;4851897;29;98594;-71
2022/04/18 04:47:47;;;;;;;14.18;12.15;;;17.90;45.00;;;;;;4852469;29;97795;-71
2022/04/18 04:50:13;;;;;;;14.25;12.57;;;18.00;45.10;;;;;;4851471;29;100289;-72
2022/04/18 04:52:38;;;;;;;14.30;12.80;;;17.90;45.00;;;;;;4850928;29;103848;-71
2022/04/18 04:55:06;;;;;;;14.50;12.45;;;17.90;45.00;;;;;;4854380;29;99517;-72
2022/04/18 04:57:32;;;;;;;14.82;12.98;;;17.90;45.00;;;;;;4854186;29;98758;-72
2022/04/18 04:59:58;;;;;;;13.88;12.18;;;17.90;44.90;;;;;;4853795;29;100118;-72
2022/04/18 05:02:24;;;;;;;16.60;13.52;;;17.90;44.90;;;;;;4855634;29;98717;-72
2022/04/18 05:04:50;;;;;;;13.05;11.65;;;17.90;44.90;;;;;;4854274;29;98710;-72
2022/04/18 05:07:15;;;;;;;14.30;12.73;;;17.90;44.90;;;;;;4854584;29;98631;-72
2022/04/18 05:09:41;;;;;;;14.30;12.80;;;17.90;45.00;;;;;;4853513;29;100577;-71
2022/04/18 05:12:08;;;;;;;13.82;12.40;;;17.90;44.90;;;;;;4854589;29;107833;-72
2022/04/18 05:14:34;;;;;;;13.93;12.38;;;17.90;44.80;;;;;;4857025;28;99123;-72
2022/04/18 05:17:01;;;;;;;13.80;12.38;;;17.90;44.90;;;;;;4873769;28;98916;-72
2022/04/18 05:19:27;;;;;;;15.18;12.60;;;17.90;44.90;;;;;;4880345;28;100546;-72
2022/04/18 05:21:53;;;;;;;15.15;13.13;;;17.90;44.80;;;;;;4892800;28;101321;-72
2022/04/18 05:24:18;;;;;;;13.90;12.23;;;17.90;44.80;;;;;;4891894;28;99137;-72
2022/04/18 05:26:46;;;;;;;14.40;12.57;;;17.90;44.80;;;;;;4893215;28;98698;-72
2022/04/18 05:29:12;;;;;;;14.60;13.02;;;17.80;45.20;;;;;;4891902;28;101059;-72
2022/04/18 05:31:38;;;;;;;15.27;12.30;;;17.90;44.90;;;;;;4892338;28;100082;-72
2022/04/18 05:34:04;;;;;;;15.75;13.13;;;17.90;44.80;;;;;;4892809;28;98603;-72
2022/04/18 05:36:29;;;;;;;15.18;12.55;;;17.90;44.90;;;;;;4893449;28;98355;-72
2022/04/18 05:38:55;;;;;;;15.65;13.45;;;17.80;44.90;;;;;;4891695;28;100217;-72
2022/04/18 05:41:21;;;;;;;14.30;12.80;;;17.80;44.80;;;;;;4890985;28;101163;-72
2022/04/18 05:43:49;;;;;;;14.15;12.68;;;17.90;44.90;;;;;;4893282;28;99838;-73
2022/04/18 05:46:15;;;;;;;14.02;12.05;;;17.80;44.80;;;;;;4892758;28;98947;-72
2022/04/18 05:48:41;;;;;;;13.93;12.43;;;17.90;44.90;;;;;;4889336;28;99245;-70
2022/04/18 05:51:07;;;;;;;15.20;12.75;;;17.80;44.80;;;;;;4872899;28;100374;-72
2022/04/18 05:53:32;;;;;;;14.52;12.40;;;17.80;44.80;;;;;;4873075;28;98615;-72
2022/04/18 05:55:58;;;;;;;13.70;12.20;;;17.80;44.90;;;;;;4873900;28;99167;-70
2022/04/18 05:58:24;;;;;;;13.73;12.23;;;17.80;44.90;;;;;;4872983;28;100295;-72
2022/04/18 06:00:49;;;;;;;16.67;13.45;;;17.80;44.80;;;;;;4873159;28;107092;-72
2022/04/18 06:03:16;;;;;;;16.27;13.60;;;17.80;44.80;;;;;;4873460;28;100429;-71
2022/04/18 06:05:43;;;;;;;14.93;12.75;;;17.90;45.00;;;;;;4876842;28;98605;-72
2022/04/18 06:08:08;;;;;;;14.57;13.07;;;17.90;44.90;;;;;;4875068;28;100348;-71
2022/04/18 06:10:40;;;;;;;15.40;13.50;;;18.00;44.70;;;;;;4872830;28;102178;-71
2022/04/18 06:13:08;;;;;;;14.82;12.77;;;18.00;44.30;;;;;;4872223;28;98864;-71
2022/04/18 06:15:34;;;;;;;15.00;13.30;;;18.10;44.20;;;;;;4873329;28;98990;-72
2022/04/18 06:18:00;;;;;;;15.68;13.68;;;18.10;43.90;;;;;;4860259;28;99368;-72
2022/04/18 06:20:25;;;;;;;14.60;13.07;;;18.20;43.90;;;;;;4869259;28;99939;-69
2022/04/18 06:22:51;;;;;;;14.85;13.18;;;18.30;43.90;;;;;;4879510;28;98971;-71
2022/04/18 06:25:17;;;;;;;15.13;12.95;;;18.30;43.60;;;;;;4875206;28;98337;-71
2022/04/18 06:27:43;;;;;;;14.60;12.57;;;18.40;43.50;;;;;;4872077;28;100256;-72
2022/04/18 06:30:09;;;;;;;13.98;12.45;;;18.50;43.30;;;;;;4872816;28;99801;-71
2022/04/18 06:32:38;;;;;;;13.88;12.43;;;18.50;43.20;;;;;;4872568;28;99875;-71
2022/04/18 06:35:05;;;;;;;15.80;12.88;;;18.60;43.00;;;;;;4872315;28;98710;-71
2022/04/18 06:37:34;;;;;;;14.27;12.77;;;18.70;42.90;;;;;;4872081;28;102250;-71
2022/04/18 06:40:00;;;;;;;14.75;12.20;;;18.70;42.90;;;;;;4871678;28;100116;-71
2022/04/18 06:42:25;;;;;;;16.50;11.80;;;18.80;42.80;;;;;;4872439;28;98806;-71
2022/04/18 06:44:51;;;;;;;17.20;12.25;;;18.80;42.90;;;;;;4872561;28;98563;-70
2022/04/18 06:47:19;;;;;;;15.30;12.13;;;18.80;42.80;;;;;;4872391;28;100155;-70
2022/04/18 06:49:47;;;;;;;15.23;11.65;;;18.80;42.80;;;;;;4872756;28;100479;-70
2022/04/18 06:52:13;;;;;;;16.50;12.25;;;18.80;43.00;;;;;;4870024;28;98773;-70
2022/04/18 06:54:39;;;;;;;16.13;12.05;;;18.80;43.10;;;;;;4872598;28;99113;-71
2022/04/18 06:57:05;;;;;;;14.95;11.95;;;18.90;43.30;;;;;;4870427;28;99906;-71
2022/04/18 06:59:30;;;;;;;15.52;11.88;;;18.90;43.30;;;;;;4871138;28;99612;-70
2022/04/18 07:01:58;;;;;;;17.05;11.40;;;19.00;43.40;;;;;;4872722;28;99076;-71
2022/04/18 07:04:24;;;;;;;16.20;11.68;;;19.00;43.40;;;;;;4854925;28;99119;-71
2022/04/18 07:06:50;;;;;;;15.82;11.65;;;19.00;43.50;;;;;;4871834;28;98966;-71
2022/04/18 07:09:17;;;;;;;13.20;11.60;;;19.00;43.70;;;;;;4870888;28;100745;-72
2022/04/18 07:11:45;;;;;;;13.20;11.13;;;19.10;43.80;;;;;;4871950;28;98550;-72
2022/04/18 07:14:12;;;;;;;13.15;11.30;;;19.10;44.00;;;;;;4871714;28;98476;-72
2022/04/18 07:16:38;;;;;;;14.20;11.27;;;19.10;44.10;;;;;;4870481;28;100644;-72
2022/04/18 07:19:03;;;;;;;15.75;11.63;;;19.10;44.20;;;;;;4870129;28;99118;-72
2022/04/18 07:21:35;;;;;;;15.23;11.23;;;19.10;44.30;;;;;;4869782;28;100140;-72
2022/04/18 07:24:02;;;;;;;15.70;10.65;;;19.20;44.40;;;;;;4871522;28;98620;-70
2022/04/18 07:26:27;;;;;;;14.73;10.88;;;19.10;44.40;;;;;;4870611;28;100676;-71
2022/04/18 07:28:53;;;;;;;14.85;10.60;;;19.10;44.60;;;;;;4871602;28;98912;-71
2022/04/18 07:31:19;;;;;;;16.13;11.77;;;19.10;44.90;;;;;;4871158;28;98537;-71
2022/04/18 07:33:44;;;;;;;16.52;11.20;;;19.10;44.80;;;;;;4871840;28;99164;-70
2022/04/18 07:36:11;;;;;;;15.90;10.88;;;19.10;44.90;;;;;;4870745;28;99898;-70
2022/04/18 07:38:49;;;;;;;16.52;11.10;;;19.10;45.00;;;;;;4869939;28;98773;-71
2022/04/18 07:41:15;;;;;;;15.65;11.00;;;19.00;45.00;;;;;;4869876;28;98930;-70
2022/04/18 07:43:41;;;;;;;13.45;10.95;;;19.00;45.10;;;;;;4871553;28;99033;-70
2022/04/18 07:46:07;;;;;;;13.35;10.77;;;19.00;45.20;;;;;;4870543;28;102588;-69
2022/04/18 07:48:33;;;;;;;15.73;10.05;;;18.90;45.10;;;;;;4872617;28;99472;-70
2022/04/18 07:53:44;;;;;;;12.65;10.20;;;19.00;45.20;;;;;;4871928;28;98767;-70
2022/04/18 07:56:10;;;;;;;14.75;10.57;;;18.90;45.20;;;;;;4871271;28;101396;-70
2022/04/18 07:58:36;;;;;;;14.05;9.95;;;18.90;45.30;;;;;;4870528;28;99413;-70
2022/04/18 08:01:02;;;;;;;14.30;10.65;;;18.90;45.20;;;;;;4871516;28;98749;-70
2022/04/18 08:03:27;;;;;;;13.32;9.88;;;18.90;45.20;;;;;;4872311;28;98103;-70
2022/04/18 08:05:56;;;;;;;13.85;9.90;;;18.90;45.30;;;;;;4871290;28;99284;-71
2022/04/18 08:08:23;;;;;;;12.80;9.68;;;18.90;45.30;;;;;;4870327;28;100171;-70
2022/04/18 08:10:49;;;;;;;11.93;9.73;;;18.80;45.30;;;;;;4870624;28;99667;-70
2022/04/18 08:13:15;;;;;;;15.27;10.07;;;18.80;45.30;;;;;;4870505;28;99111;-69
2022/04/18 08:15:41;;;;;;;11.65;9.88;;;18.80;45.30;;;;;;4869639;28;100559;-71
2022/04/18 08:18:07;;;;;;;12.40;9.30;;;18.80;45.40;;;;;;4870241;28;98769;-70
2022/04/18 08:20:33;;;;;;;12.07;9.68;;;18.80;45.40;;;;;;4870436;28;99126;-70
2022/04/18 08:22:58;;;;;;;12.85;9.70;;;18.80;45.30;;;;;;4870827;28;98683;-70
2022/04/18 08:25:24;;;;;;;11.95;9.48;;;18.70;45.30;;;;;;4869542;28;99231;-70
2022/04/18 08:27:51;;;;;;;10.88;8.88;;;18.80;45.40;;;;;;4870576;28;99883;-70
2022/04/18 08:30:16;;;;;;;11.13;9.15;;;18.80;45.30;;;;;;4870934;28;98654;-69
2022/04/18 08:32:42;;;;;;;10.63;9.13;;;18.80;45.40;;;;;;4871029;28;98969;-70
2022/04/18 08:35:09;;;;;;;10.93;8.48;;;18.70;45.40;;;;;;4869369;28;100288;-69
2022/04/18 08:37:36;;;;;;;10.77;8.35;;;18.70;45.40;;;;;;4871039;28;99507;-70
2022/04/18 08:40:07;;;;;;;11.75;8.90;;;18.70;45.30;;;;;;4870457;28;98651;-69
2022/04/18 08:42:38;;;;;;;10.90;8.70;;;18.70;45.30;;;;;;4871213;28;98563;-70
2022/04/18 08:45:10;;;;;;;11.25;9.38;;;18.70;45.30;;;;;;4870756;28;100137;-70
2022/04/18 08:53:11;;;;;;;10.45;8.52;;;18.70;45.40;;;;;;4871340;28;97800;-70
2022/04/18 08:55:37;;;;;;;12.25;8.93;;;18.70;45.40;;;;;;4870403;28;99165;-69
2022/04/18 08:58:04;;;;;;;10.40;9.23;;;18.70;45.50;;;;;;4869388;28;98870;-70
2022/04/18 09:00:30;;;;;;;9.95;8.70;;;18.70;45.50;;;;;;4870232;28;99367;-69
2022/04/18 09:02:55;;;;;;;10.50;8.15;;;18.70;45.50;;;;;;4852636;28;99011;-70
2022/04/18 09:05:21;;;;;;;12.70;8.73;;;18.60;45.50;;;;;;4870573;28;106536;-70
2022/04/18 09:08:00;;;;;;;10.27;7.88;;;18.70;45.60;;;;;;4869639;28;101126;-69
2022/04/18 09:10:27;;;;;;;10.68;8.18;;;18.70;45.50;;;;;;4869996;28;99077;-69
2022/04/18 09:12:52;;;;;;;10.13;8.38;;;18.60;45.60;;;;;;4869737;28;99206;-69
2022/04/18 09:15:38;;;;;;;10.32;7.78;;;18.70;45.60;;;;;;4869540;28;99274;-69
2022/04/18 09:18:18;;;;;;;8.43;7.28;;;18.70;45.60;;;;;;4870003;28;99973;-69
2022/04/18 09:20:52;;;;;;;12.02;8.10;;;18.70;45.60;;;;;;4869700;28;98675;-69
2022/04/18 09:23:30;;;;;;;10.68;8.05;;;18.60;45.60;;;;;;4870295;28;98753;-69
2022/04/18 09:26:08;;;;;;;8.70;7.68;;;18.60;45.50;;;;;;4868865;28;101071;-69
2022/04/18 09:28:40;;;;;;;8.70;7.30;;;18.70;45.50;;;;;;4869945;28;100646;-68
2022/04/18 09:31:11;;;;;;;11.35;7.45;;;18.70;45.40;;;;;;4852919;28;99517;-68
2022/04/18 09:33:55;;;;;;;10.30;7.10;;;18.70;45.40;;;;;;4875555;28;98608;-68
2022/04/18 09:36:22;;;;;;;8.63;7.32;;;18.70;45.40;;;;;;4871835;28;100252;-69
2022/04/18 09:38:50;;;;;;;9.85;7.80;;;18.70;46.50;;;;;;4870827;28;98683;-68
2022/04/18 09:41:28;;;;;;;10.10;7.53;;;18.70;45.40;;;;;;4871814;28;98680;-69
2022/04/18 09:43:55;;;;;;;9.23;7.53;;;18.70;45.40;;;;;;4873988;28;98390;-69
2022/04/18 09:46:22;;;;;;;9.95;7.60;;;18.70;45.30;;;;;;4872929;28;99829;-69
2022/04/18 09:48:49;;;;;;;7.60;6.80;;;18.70;45.30;;;;;;4872144;28;99145;-68
2022/04/18 09:51:29;;;;;;;7.95;7.03;;;18.70;45.20;;;;;;4872715;28;99643;-69
2022/04/18 09:53:58;;;;;;;8.30;7.10;;;18.70;45.00;;;;;;4872944;28;100500;-69
2022/04/18 09:56:26;;;;;;;8.93;6.70;;;18.70;44.80;;;;;;4873126;28;101379;-69
2022/04/18 09:58:53;;;;;;;8.45;6.80;;;18.80;45.00;;;;;;4872382;28;99318;-69
2022/04/18 10:01:19;;;;;;;7.90;6.72;;;18.80;45.10;;;;;;4872625;28;98671;-69
2022/04/18 10:03:46;;;;;;;8.18;6.88;;;18.80;45.10;;;;;;4871773;28;99314;-68
2022/04/18 10:06:12;;;;;;;7.53;6.65;;;18.80;45.10;;;;;;4872956;28;99577;-69
2022/04/18 10:08:38;;;;;;;8.13;6.03;;;18.80;45.00;;;;;;4873500;28;99854;-68
2022/04/18 10:11:08;;;;;;;9.20;6.90;;;18.90;45.00;;;;;;4872581;28;98630;-69
2022/04/18 10:13:35;;;;;;;8.50;6.40;;;18.90;44.90;;;;;;4873598;28;98588;-69
2022/04/18 10:16:01;;;;;;;6.82;5.97;;;18.90;45.00;;;;;;4871850;28;101214;-69
2022/04/18 10:18:28;;;;;;;7.22;6.45;;;18.90;44.90;;;;;;4872866;28;100137;-69
2022/04/18 10:21:19;;;;;;;6.68;5.95;;;18.90;45.00;;;;;;4872891;28;98796;-70
2022/04/18 10:24:13;;;;;;;7.15;6.05;;;18.90;44.90;;;;;;4872457;28;98609;-69
2022/04/18 10:26:45;;;;;;;8.20;6.00;;;18.90;44.90;;;;;;4871092;28;100562;-69
2022/04/18 10:29:24;;;;;;;6.83;5.70;;;18.90;46.00;;;;;;4872729;28;99283;-69
2022/04/18 10:31:52;;;;;;;7.03;6.03;;;19.00;45.00;;;;;;4872398;28;99066;-69
2022/04/18 10:34:31;;;;;;;5.95;5.32;;;19.00;45.00;;;;;;4873546;28;98219;-68
2022/04/18 10:36:59;;;;;;;6.82;5.68;;;19.00;44.90;;;;;;4873256;28;99737;-70
2022/04/18 10:39:35;;;;;;;6.47;5.53;;;19.00;44.80;;;;;;4872659;28;98696;-69
2022/04/18 10:42:23;;;;;;;6.80;5.72;;;19.00;44.80;;;;;;4872709;28;99828;-70
2022/04/18 10:45:01;;;;;;;7.15;5.47;;;19.00;44.90;;;;;;4872884;28;99111;-69
2022/04/18 10:47:56;;;;;;;7.22;5.90;;;19.00;44.80;;;;;;4872669;28;99727;-69
2022/04/18 10:50:32;;;;;;;6.50;5.45;;;19.00;45.00;;;;;;4872771;28;99969;-70
2022/04/18 10:53:10;;;;;;;7.03;5.28;;;19.00;44.80;;;;;;4873846;28;98621;-69
2022/04/18 10:55:37;;;;;;;6.53;5.47;;;19.00;44.80;;;;;;4873342;28;99892;-69
2022/04/18 10:58:10;;;;;;;6.65;5.00;;;19.00;44.80;;;;;;4871603;28;100176;-70
2022/04/18 11:00:55;;;;;;;6.72;5.43;;;19.00;44.70;;;;;;4870757;28;100189;-69
2022/04/18 11:03:46;;;;;;;5.57;4.90;;;19.00;44.60;;;;;;4871958;28;99124;-69
2022/04/18 11:06:18;;;;;;;5.70;5.10;;;19.00;44.60;;;;;;4873150;28;98587;-69
2022/04/18 11:09:02;;;;;;;5.80;4.95;;;19.10;44.60;;;;;;4870885;28;100079;-69
2022/04/18 11:11:46;;;;;;;5.95;4.93;;;19.10;44.60;;;;;;4872136;28;99602;-69
2022/04/18 11:14:19;;;;;;;5.65;4.45;;;19.10;44.70;;;;;;4872887;28;99223;-69
2022/04/18 11:16:56;;;;;;;;;;;19.10;44.70;;;;;;4876490;28;98538;-69
2022/04/18 11:19:25;;;;;;;6.97;5.13;;;19.00;44.90;;;;;;4875210;28;100240;-69
2022/04/18 11:24:47;;;;;;;5.13;4.63;;;19.10;44.70;;;;;;4872626;28;98584;-70
2022/04/18 11:27:20;;;;;;;5.20;4.70;;;19.10;44.70;;;;;;4873580;28;97851;-70
2022/04/18 11:29:51;;;;;;;5.28;4.45;;;19.10;44.70;;;;;;4871106;28;100476;-70
2022/04/18 11:32:19;;;;;;;6.13;4.40;;;19.10;44.70;;;;;;4871261;28;101177;-70
2022/04/18 11:34:47;;;;;;;5.60;5.00;;;19.10;44.70;;;;;;4872220;28;99406;-70
2022/04/18 11:37:25;;;;;;;4.75;4.35;;;19.10;44.80;;;;;;4872421;28;98578;-71
2022/04/18 11:39:52;;;;;;;4.72;4.32;;;19.10;44.50;;;;;;4871907;28;99209;-70
2022/04/18 11:42:23;;;;;;;4.78;4.13;;;19.10;44.60;;;;;;4871149;28;99984;-70
2022/04/18 11:44:51;;;;;;;4.82;4.13;;;19.10;44.50;;;;;;4872061;28;98625;-69
2022/04/18 11:47:23;;;;;;;5.57;4.05;;;19.10;44.50;;;;;;4871329;28;98731;-70
2022/04/18 11:50:01;;;;;;;5.28;4.63;;;19.20;44.60;;;;;;4871237;28;99088;-69
2022/04/18 11:52:36;;;;;;;5.10;4.32;;;19.10;44.60;;;;;;4871775;28;100002;-69
2022/04/18 11:55:11;;;;;;;4.60;4.13;;;19.20;44.80;;;;;;4871003;28;100271;-69
2022/04/18 11:57:38;;;;;;;4.97;4.03;;;19.10;44.80;;;;;;4870832;28;98755;-69
2022/04/18 12:00:10;;;;;;;4.95;4.00;;;19.20;44.90;;;;;;4871667;28;100267;-70
2022/04/18 12:08:07;;;;;;;4.88;4.32;;;19.20;45.00;;;;;;4871476;28;98667;-69
2022/04/18 12:10:35;;;;;;;5.03;3.97;;;19.20;45.00;;;;;;4871122;28;100227;-69
2022/04/18 12:13:07;;;;;;;4.40;3.78;;;19.20;45.00;;;;;;4870194;28;99003;-69
2022/04/18 12:15:34;;;;;;;4.45;3.85;;;19.10;44.90;;;;;;4870957;28;98932;-69
2022/04/18 12:18:25;;;;;;;4.50;3.78;;;19.20;45.00;;;;;;4870524;28;97895;-69
2022/04/18 12:20:51;;;;;;;4.43;4.00;;;19.20;45.00;;;;;;4869592;28;99385;-69
2022/04/18 12:23:19;;;;;;;4.38;3.80;;;19.20;45.00;;;;;;4871272;28;99586;-69
2022/04/18 12:25:47;;;;;;;4.38;3.72;;;19.20;45.00;;;;;;4870422;28;99352;-70
2022/04/18 12:28:14;;;;;;;4.32;3.92;;;19.20;45.00;;;;;;4853710;28;99152;-69
2022/04/18 12:30:40;;;;;;;5.32;3.90;;;19.20;45.10;;;;;;4870292;28;100522;-70
2022/04/18 12:33:25;;;;;;;4.47;3.50;;;19.20;45.00;;;;;;4870276;28;100187;-70
2022/04/18 12:35:56;;;;;;;4.20;3.80;;;19.20;45.00;;;;;;4871359;28;98914;-69
2022/04/18 12:38:36;;;;;;;4.25;3.85;;;19.20;45.10;;;;;;4870458;28;98615;-69
2022/04/18 12:41:02;;;;;;;4.07;3.67;;;19.20;45.20;;;;;;4871021;28;101037;-69
2022/04/18 12:43:33;;;;;;;5.20;3.58;;;19.20;45.20;;;;;;4870834;28;98855;-69
2022/04/18 12:46:07;;;;;;;3.95;3.55;;;19.20;45.10;;;;;;4872397;28;98594;-69
2022/04/18 12:48:35;;;;;;;3.92;3.53;;;19.20;45.10;;;;;;4871249;28;99087;-68
2022/04/18 12:51:05;;;;;;;3.80;3.20;;;19.20;45.20;;;;;;4869269;28;100995;-69
2022/04/18 12:53:48;;;;;;;3.78;3.42;;;19.30;45.20;;;;;;4870190;28;102461;-70
2022/04/18 12:56:21;;;;;;;3.55;3.25;;;19.20;45.10;;;;;;4872098;28;98598;-69
2022/04/18 12:58:50;;;;;;;3.72;3.40;;;19.20;45.10;;;;;;4872572;28;99105;-69
2022/04/18 13:01:34;;;;;;;4.18;3.55;;;19.20;45.10;;;;;;4874053;28;100314;-69
2022/04/18 13:04:01;;;;;;;3.97;3.58;;;19.20;45.10;;;;;;4869518;28;102242;-67
2022/04/18 13:06:29;;;;;;;3.80;3.40;;;19.20;45.20;;;;;;4870737;28;99384;-67
2022/04/18 13:09:07;;;;;;;4.03;3.10;;;19.30;46.20;;;;;;4870832;28;98379;-67
2022/04/18 13:11:42;;;;;;;3.97;3.30;;;19.30;45.20;;;;;;4870042;28;100210;-67
2022/04/18 13:14:10;;;;;;;3.55;3.25;;;19.30;45.10;;;;;;4869418;28;99956;-70
2022/04/18 13:16:36;;;;;;;4.05;3.60;;;19.30;45.20;;;;;;4872294;28;99378;-70
2022/04/18 13:19:13;;;;;;;3.70;3.33;;;19.30;45.10;;;;;;4871985;28;98842;-70
2022/04/18 13:21:41;;;;;;;3.83;3.45;;;19.40;45.20;;;;;;4873792;28;99954;-71
2022/04/18 13:24:08;;;;;;;3.80;3.40;;;19.30;45.10;;;;;;4874000;28;98654;-69
2022/04/18 13:26:36;;;;;;;3.80;3.40;;;19.40;45.20;;;;;;4873130;28;98991;-71
2022/04/18 13:29:02;;;;;;;3.58;3.28;;;19.40;45.20;;;;;;4874479;28;98623;-70
2022/04/18 13:31:29;;;;;;;3.28;2.97;;;19.30;45.10;;;;;;4872428;28;100769;-69
2022/04/18 13:33:55;;;;;;;3.67;3.20;;;19.30;45.20;;;;;;4855823;28;100237;-70
2022/04/18 13:36:36;;;;;;;3.72;3.42;;;19.40;45.20;;;;;;4873114;28;98735;-70
2022/04/18 13:39:10;;;;;;;3.75;3.17;;;19.40;45.20;;;;;;4873690;28;98587;-70
2022/04/18 13:41:37;;;;;;;3.50;2.97;;;19.40;45.20;;;;;;4873183;28;100345;-70
2022/04/18 13:44:04;;;;;;;3.78;3.40;;;19.40;45.20;;;;;;4872998;28;100740;-70
2022/04/18 13:46:30;;;;;;;3.42;2.80;;;19.40;45.20;;;;;;4873769;28;99113;-70
2022/04/18 13:48:56;;;;;;;3.38;2.95;;;19.40;45.20;;;;;;4872165;28;98736;-71
2022/04/18 13:51:23;;;;;;;3.28;2.95;;;19.40;45.30;;;;;;4872819;28;99078;-70
2022/04/18 13:53:49;;;;;;;3.40;3.10;;;19.40;45.40;;;;;;4873299;28;100543;-70
2022/04/18 13:56:16;;;;;;;3.08;2.78;;;19.40;45.30;;;;;;4871880;28;99218;-70
2022/04/18 13:58:41;;;;;;;3.08;2.58;;;19.40;45.50;;;;;;4873911;28;98260;-69
2022/04/18 14:01:07;;;;;;;4.07;3.30;;;19.40;45.70;;;;;;4872166;28;100086;-70
2022/04/18 14:03:37;;;;;;;3.28;2.80;;;19.40;45.70;;;;;;4873053;28;99546;-70
2022/04/18 14:06:04;;;;;;;3.20;2.90;;;19.40;45.70;;;;;;4872971;28;99730;-70